Tiempo atmosférico en la estación meteorológica de Cuenca, Cuenca (945 m.)



Fecha
DESCASC
Temp. máxima en grados centígrados (hora)
DESCASC
Temp. mínima en grados centígrados (hora)
DESCASC
Temp. media en grados centígrados
DESCASC
Racha de viento máxima en m/sg (hora)
DESCASC
Velocidad máxima media en intervalos de 10 minutos(hora)
DESCASC
Precipitaciones diarias en mm
DESCASC
Precipitaciones de 00:00 a 06:00 en mm
DESCASC
Precipitaciones de 06:00 a 12:00 en mm
DESCASC
Precipitaciones de 12:00 a 18:00 en mm
DESCASC
Precipitaciones de 18:00 a 24:00 en mm
DESCASC
23-06-2019 33.5 (17:50) 19.1 (07:20) 26.3 9.17 (23:59) 4.72 (18:20) 0 0 0 0 0
22-06-2019 30.2 (16:00) 15.3 (07:00) 22.8 7.5 (17:10) 3.89 (10:00) 0 0 0 0 0
21-06-2019 29.6 (17:00) 16.1 (06:30) 22.9 7.78 (12:10) 3.33 (13:50) 0 0 0 0 0
20-06-2019 28.8 (15:30) 13 (00:00) 20.9 7.5 (17:30) 3.33 (17:10) 0 0 0 0 0
19-06-2019 29 (18:00) 12.3 (00:00) 20.7 8.33 (18:40) 3.89 (18:40) 0 0 0 0 0
18-06-2019 30.6 (17:00) 16.1 (00:00) 23.4 11.67 (17:50) 5 (17:20) 0 0 0 0 0
17-06-2019 30.9 (17:50) 12.2 (00:00) 21.5 8.89 (16:40) 3.89 (17:40) 0 0 0 0 0
16-06-2019 27 (14:30) 10.2 (00:00) 18.6 9.17 (14:30) 4.72 (14:50) 0 0 0 0 0
15-06-2019 25.9 (18:10) 9.5 (00:00) 17.7 6.94 (01:50) 3.06 (17:30) 0 0 0 0 0
14-06-2019 25.8 (18:00) 13.7 (00:00) 19.7 12.5 (18:20) 4.72 (19:20) 0 0 0 0 0
13-06-2019 25 (16:30) 12.2 (00:00) 18.6 11.39 (22:00) 5.28 (10:50) 0 0 0 0 0
12-06-2019 24.2 (18:50) 4.7 (00:00) 14.5 12.5 (12:50) 5 (23:40) 0 0 0 0 0
11-06-2019 20.1 (12:40) 10.3 (00:00) 15.2 10.28 (15:50) 4.17 (15:50) 0 0 0 0 0
10-06-2019 25.4 (16:00) 9.4 (00:00) 17.4 7.5 (11:20) 3.33 (17:40) 0 0 0 0 0
09-06-2019 27.1 (18:10) 14.1 (00:00) 20.6 9.44 (15:20) 4.17 (16:50) 0 0 0 0 0
08-06-2019 24.7 (15:50) 9.1 (00:00) 16.9 11.67 (09:20) 6.11 (12:50) 0 0 0 0 0
07-06-2019 21.9 (17:00) 10.8 (00:00) 16.3 10.56 (00:10) 4.72 (00:10) 0.4 0 0.4 0 0
06-06-2019 24.9 (17:50) 6.8 (00:00) 15.8 11.94 (18:10) 5.83 (14:20) 0 0 0 0 0
05-06-2019 21.2 (00:00) 11.8 (00:00) 16.5 13.61 (14:10) 5.56 (12:40) 1 0 1 0 0
04-06-2019 30.5 (17:20) 13.8 (00:00) 22.2 10.28 (17:20) 5 (15:10) 0 0 0 0 0
03-06-2019 32.4 (16:00) 15.5 (00:00) 24 9.17 (16:20) 4.17 (15:00) 0 0 0 0 0
02-06-2019 32.5 (18:00) 12.6 (00:00) 22.6 7.78 (23:40) 3.89 (23:50) 0 0 0 0 0
01-06-2019 31.5 (17:50) 11.8 (00:00) 21.7 7.5 (22:10) 3.61 (23:59) 0 0 0 0 0
31-05-2019 30.1 (17:30) 10.3 (00:00) 20.2 6.67 (17:30) 3.33 (23:30) 0 0 0 0 0
30-05-2019 29.1 (18:20) 7.9 (00:00) 18.5 6.94 (23:00) 3.06 (22:00) 0 0 0 0 0
29-05-2019 25.6 (16:50) 7.3 (00:00) 16.5 8.61 (18:00) 2.78 (03:10) 0 0 0 0 0
28-05-2019 25.5 (16:30) 9.8 (00:00) 17.7 9.72 (15:20) 3.89 (15:00) 0 0 0 0 0

Gráficas

Temp. máximas Temp. mínimas Temp. medias Precipitaciones Rachas de viento máximas Velocidades máximas media en intervalos de 10 minutos

Datos horarios

Fecha y hora oficial Temperatura (ºC) Velocidad del viento (km/h) Dirección del viento Racha (km/h) Dirección de racha Precipitación (mm) Presión (hPa) Tendencia (hPa) Humedad (%)
2019-06-26 23:00:00 27.4 17 Sudeste 39 Sudeste 0 911.8 1.6 30
2019-06-26 22:00:00 27.9 10 Sudeste 36 Sudeste 0 910.9 0.9 34
2019-06-26 21:00:00 29.5 18 Sudeste 36 Sudeste 0 910.4 0.5 33
2019-06-26 20:00:00 31.7 20 Sudeste 38 Sudeste 0 910.2 0.1 30
2019-06-26 19:00:00 33.5 19 Sur 43 Sudeste 0 910 -0.4 28
2019-06-26 18:00:00 34.4 19 Sudeste 41 Sudeste 0 909.9 -1 26
2019-06-26 17:00:00 34.9 15 Sudeste 30 Sur 0 910.1 -1.5 26
2019-06-26 16:00:00 34.4 12 Sur 30 Sur 0 910.4 -1.4 28
2019-06-26 15:00:00 32.3 15 Sur 30 Sur 0 910.9 -1 32
2019-06-26 14:00:00 30.8 13 Sur 28 Sur 0 911.6 -0.4 34
2019-06-26 13:00:00 29.1 14 Sudeste 30 Sudeste 0 911.8 0.1 36
2019-06-26 12:00:00 27.1 15 Sur 32 Sur 0 911.9 0.4 40
2019-06-26 11:00:00 24.5 18 Sudeste 33 Sudeste 0 912 0.9 47
2019-06-26 10:00:00 24.2 15 Sur 26 Sur 0 911.7 1.2 43
2019-06-26 09:00:00 22 12 Sur 25 Sudeste 0 911.5 1.2 45
2019-06-26 08:00:00 18.4 4 Sur 11 Sudeste 0 911.1 1.1 53
2019-06-26 07:00:00 18.8 2 Sur 4 Sudoeste 0 910.5 -0.1 56
2019-06-26 06:00:00 20.1 3 Oeste 10 Noroeste 0 910.3 -0.7 52
2019-06-26 05:00:00 21.5 5 Noroeste 19 Sudeste 0 910 -1.2 49
2019-06-26 04:00:00 22.8 13 Sudeste 28 Sur 0 910.6 -0.6 42
2019-06-26 03:00:00 22 13 Sur 26 Sudeste 0 911 0.3 51
2019-06-26 02:00:00 21.6 7 Sur 16 Sur 0 911.2 1 59
2019-06-26 01:00:00 22.6 8 Sudeste 19 Sudeste 0 911.2 1.9 58
2019-06-26 00:00:00 24.4 7 Sur 17 Sur 0 910.7 1.9 52
2019-06-25 23:00:00 26.1 9 Sudeste 24 Sudeste 0 910.2 1.8 49
2019-06-25 22:00:00 28 11 Sudeste 30 Sudeste 0 909.3 0.8 45
2019-06-25 21:00:00 31.4 15 Sudeste 36 Sur 0 908.8 0.1 33
2019-06-25 20:00:00 33.6 10 Sur 27 Sudoeste 0 908.4 -0.5 21
2019-06-25 19:00:00 34.5 13 Sur 33 Sudeste 0 908.5 -0.6 20
2019-06-25 18:00:00 35.2 12 Sudoeste 29 Sur 0 908.7 -0.9 20
2019-06-25 17:00:00 35.3 15 Sudoeste 28 Sur 0 908.9 -1.2 20
2019-06-25 16:00:00 34.8 11 Sur 30 Sudoeste 0 909.1 -1.2 22
2019-06-25 15:00:00 33.9 10 Sudoeste 22 Sudoeste 0 909.6 -0.8 23
2019-06-25 14:00:00 32.4 10 Sudoeste 21 Sudoeste 0 910.1 -0.3 26
2019-06-25 13:00:00 30.9 9 Sur 19 Sudoeste 0 910.3 -0.1 29
2019-06-25 12:00:00 28.9 5 Sudeste 14 Sur 0 910.4 0.6 32
2019-06-25 11:00:00 26.9 7 Sudeste 16 Sur 0 910.4 0.3 37
2019-06-25 10:00:00 23.7 7 Sur 12 Sur 0 910.4 0.8 46
2019-06-25 09:00:00 20.1 4 Sur 7 Oeste 0 909.8 0.6 59
2019-06-25 08:00:00 17.8 0 Calma 4 Sudoeste 0 910.1 0.9 63
2019-06-25 07:00:00 17.5 2 Nordeste 7 Oeste 0 909.6 0.4 62
2019-06-25 06:00:00 18.1 3 Noroeste 6 Noroeste 0 909.2 -0.2 59
2019-06-25 05:00:00 18.8 0 Calma 6 Noroeste 0 909.2 -0.2 56
2019-06-25 04:00:00 19.5 3 Norte 10 Sur 0 909.2 -0.2 56
2019-06-25 03:00:00 20.2 4 Sudeste 12 Sur 0 909.4 0.1 52
2019-06-25 02:00:00 21 9 Sur 15 Sudeste 0 909.4 0.8 51
2019-06-25 01:00:00 22.1 6 Sur 14 Sudeste 0 909.4 1.4 49
2019-06-25 00:00:00 23.6 7 Sudeste 13 Sudeste 0 909.3 1.5 45
2019-06-24 23:00:00 24.9 5 Sudeste 18 Sudeste 0 908.6 1.2 41
2019-06-24 22:00:00 26.6 3 Sudeste 10 Sudoeste 0 908 0.8 32
2019-06-24 21:00:00 27.9 6 Sudoeste 15 Sur 0 907.8 0.5 29
2019-06-24 20:00:00 29.1 9 Sur 23 Sur 0 907.4 0.3 26
2019-06-24 19:00:00 31 11 Sur 25 Sudoeste 0 907.2 0 22
2019-06-24 18:00:00 31.5 12 Sur 25 Sudoeste 0 907.3 -0.1 21
2019-06-24 17:00:00 32.8 11 Sur 29 Sur 0 907.1 -0.6 20
2019-06-24 16:00:00 32.5 11 Sur 32 Sudeste 0 907.2 -0.8 21
2019-06-24 15:00:00 32.1 6 Sur 23 Sur 0 907.4 -1.1 21
2019-06-24 14:00:00 30.5 9 Sur 23 Sur 0 907.7 -1.1 23
2019-06-24 13:00:00 29 7 Sudeste 17 Sur 0 908 -0.7 24
2019-06-24 12:00:00 27.1 8 Sudeste 25 Sur 0 908.5 -0.1 25
2019-06-24 11:00:00 25.2 13 Sudeste 27 Sudeste 0 908.8 0.6 27
2019-06-24 10:00:00 23 13 Sudeste 26 Sur 0 908.7 0.6 28
2019-06-24 09:00:00 21.1 9 Sur 17 Sudeste 0 908.6 0.8 34
2019-06-24 08:00:00 19.5 3 Sur 20 Sudeste 0 908.2 0.2 38
2019-06-24 07:00:00 19.3 11 Sur 30 Sur 0 908.1 -0.1 37
2019-06-24 06:00:00 19.5 17 Sudeste 34 Sudeste 0 907.8 -0.8 37
2019-06-24 05:00:00 19.4 16 Sur 29 Sudeste 0 908 -0.7 37
2019-06-24 04:00:00 19.1 13 Sur 30 Sudeste 0 908.2 -0.6 39
2019-06-24 03:00:00 19.8 15 Sudeste 34 Sudeste 0 908.6 0.2 35
2019-06-24 02:00:00 20.4 17 Sudeste 38 Sudeste 0 908.7 0.9 33
2019-06-24 01:00:00 21.3 15 Sudeste 35 Sudeste 0 908.8 1.7 31
2019-06-24 00:00:00 22.7 16 Sudeste 33 Sur 0 908.4 1.6 32
2019-06-23 23:00:00 24.5 11 Sudeste 27 Sudeste 0 907.8 1.5 31
2019-06-23 22:00:00 26.3 13 Sudeste 28 Este 0 907.1 0.9 29
2019-06-23 21:00:00 28.6 10 Sudeste 27 Sudeste 0 906.8 0.3 27
2019-06-23 20:00:00 31.5 13 Sur 27 Sur 0 906.3 -0.6 20
2019-06-23 19:00:00 32.4 13 Sur 30 Sudeste 0 906.2 -1.2 19
2019-06-23 18:00:00 33 10 Sur 28 Sur 0 906.5 -1.5 19
2019-06-23 17:00:00 33.4 12 Sur 26 Sur 0 906.9 -1.5 19
2019-06-23 16:00:00 32.2 13 Sudoeste 31 Sudoeste 0 907.4 -1.2 19
2019-06-23 15:00:00 31.3 14 Sur 29 Sudoeste 0 908 -0.7 19
2019-06-23 14:00:00 30.3 13 Sur 28 Sur 0 908.4 -0.4 22
2019-06-23 13:00:00 29.2 10 Sudoeste 26 Sur 0 908.6 -0.4 25
2019-06-23 12:00:00 27.8 10 Sur 25 Sur 0 908.7 -0.4 27
2019-06-23 11:00:00 26 11 Sur 22 Sudoeste 0 908.8 0.2 32
2019-06-23 10:00:00 23.7 10 Sur 24 Sudeste 0 909 0.8 40
2019-06-23 09:00:00 21.1 13 Sur 22 Sur 0 909.1 1.1 46
2019-06-23 08:00:00 19.3 11 Sudeste 23 Sudeste 0 908.6 0.7 50
2019-06-23 07:00:00 19.3 11 Sudeste 31 Sudeste 0 908.2 0 49
2019-06-23 06:00:00 19.4 13 Sudeste 29 Sur 0 908 -0.5 50
2019-06-23 05:00:00 19.5 13 Sudeste 29 Sudeste 0 907.9 -0.8 53
2019-06-23 04:00:00 19.9 13 Sudeste 33 Sudeste 0 908.2 -0.6 57
2019-06-23 03:00:00 20.2 9 Sudeste 28 Sudeste 0 908.5 -0.3 61
2019-06-23 02:00:00 20.7 11 Sudeste 26 Sur 0 908.7 0.2 59
2019-06-23 01:00:00 21.4 11 Sudeste 25 Sudeste 0 908.8 1.1 56
2019-06-23 00:00:00 22.3 11 Sudeste 26 Sudeste 0 908.8 1.5 55
2019-06-22 23:00:00 23.5 10 Sudeste 24 Sudeste 0 908.5 1.3 51
2019-06-22 22:00:00 25.6 11 Sudeste 25 Sur 0 907.7 0.4 45
2019-06-22 21:00:00 27.6 5 Sur 16 Sur 0 907.3 -0.4 32
2019-06-22 20:00:00 28.6 9 Sudoeste 24 Sudoeste 0 907.2 -0.7 30
2019-06-22 19:00:00 29.5 7 Sudoeste 20 Sudoeste 0 907.3 -1.1 27
2019-06-22 18:00:00 29.3 10 Sur 27 Sudeste 0 907.7 -1.1 23
2019-06-22 17:00:00 30 13 Sur 26 Sur 0 907.9 -1.4 24
2019-06-22 16:00:00 30.2 10 Sudoeste 23 Sur 0 908.4 -1.6 22
2019-06-22 15:00:00 28.7 10 Sudeste 24 Sur 0 908.8 -1.5 24
2019-06-22 14:00:00 27.5 6 Sudoeste 25 Sur 0 909.3 -0.8 29
2019-06-22 13:00:00 25.9 8 Sudeste 21 Sudeste 0 910 -0.5 42
2019-06-22 12:00:00 23.4 13 Sudeste 22 Sur 0 910.3 0 51
2019-06-22 11:00:00 21.5 13 Sudeste 26 Sudeste 0 910.1 -0.1 56
2019-06-22 10:00:00 19.8 14 Sudeste 25 Sudeste 0 910.5 0.7 60
2019-06-22 09:00:00 18.2 12 Sudeste 23 Sudeste 0 910.3 0.7 67
2019-06-22 08:00:00 15.7 0 Calma 5 Noroeste 0 910.2 0.6 76
2019-06-22 07:00:00 15.3 3 Sudoeste 6 Oeste 0 909.8 -0.2 77
2019-06-22 06:00:00 15.7 3 Oeste 7 Noroeste 0 909.6 -0.5 74
2019-06-22 05:00:00 15.9 2 Nordeste 11 Sudeste 0 909.6 -0.5 73
2019-06-22 04:00:00 16.7 3 Sur 11 Sudeste 0 910 -0.2 73
2019-06-22 03:00:00 17.5 6 Sudeste 10 Sudeste 0 910.1 0.3 74
2019-06-22 02:00:00 18 3 Nordeste 15 Sudeste 0 910.1 1.1 70
2019-06-22 01:00:00 18.8 8 Sudeste 23 Sudeste 0 910.2 2 67
2019-06-22 00:00:00 19.9 7 Sudeste 20 Sur 0 909.8 1.9 51
2019-06-21 23:00:00 21.5 6 Este 21 Norte 0 909 1.5 40
2019-06-21 22:00:00 24.3 4 Noroeste 16 Oeste 0 908.2 1.1 23
2019-06-21 21:00:00 25.6 9 Oeste 18 Oeste 0 907.9 0.9 20
2019-06-21 20:00:00 27.1 8 Noroeste 27 Noroeste 0 907.5 0.2 19
2019-06-21 19:00:00 28.8 11 Oeste 25 Oeste 0 907.1 -0.2 18
2019-06-21 18:00:00 28.9 9 Oeste 23 Sudoeste 0 907 -0.4 18
2019-06-21 17:00:00 29.3 12 Oeste 26 Sudoeste 0 907.3 -0.5 19
2019-06-21 16:00:00 28.2 5 Oeste 23 Oeste 0 907.3 -0.8 21
2019-06-21 15:00:00 28.3 9 Sudoeste 25 Sudoeste 0 907.4 -0.6 22
2019-06-21 14:00:00 27.4 9 Sudoeste 28 Sudoeste 0 907.8 -0.3 24
2019-06-21 13:00:00 25.1 10 Oeste 28 Noroeste 0 908.1 0 27
2019-06-21 12:00:00 24.8 5 Oeste 19 Noroeste 0 908 0.1 33
2019-06-21 11:00:00 23.5 9 Sudoeste 17 Sudoeste 0 908.1 0.6 38
2019-06-21 10:00:00 21.1 7 Sur 14 Sudoeste 0 908.1 0.8 48
2019-06-21 09:00:00 18.5 7 Sur 13 Sur 0 907.9 1 58
2019-06-21 08:00:00 16.6 6 Sudeste 13 Sudeste 0 907.5 0.8 65
2019-06-21 07:00:00 16.2 5 Sudeste 10 Sudeste 0 907.3 0.6 66
2019-06-21 06:00:00 16.3 2 Sur 6 Oeste 0 906.9 0 64
2019-06-21 05:00:00 17 3 Oeste 6 Sudoeste 0 906.7 -0.5 61
2019-06-21 04:00:00 18.1 2 Oeste 5 Oeste 0 906.7 -0.3 58
2019-06-21 03:00:00 19.3 0 Calma 8 Sudeste 0 906.9 0.2 53
2019-06-21 02:00:00 19.9 6 Sudeste 11 Sudeste 0 907.2 0.9 55
2019-06-21 01:00:00 21 6 Sudeste 19 Sur 0 907 1.2 46
2019-06-21 00:00:00 21.6 6 Sudeste 14 Sudeste 0 906.7 1.4 37
2019-06-20 23:00:00 22.8 3 Norte 8 Norte 0 906.3 1 35
2019-06-20 22:00:00 24.2 4 Noroeste 16 Noroeste 0 905.8 0.5 32
2019-06-20 21:00:00 25.5 7 Noroeste 24 Oeste 0 905.3 -0.4 28
2019-06-20 20:00:00 26.9 8 Sudoeste 24 Sudoeste 0 905.3 -0.3 23
2019-06-20 19:00:00 27.7 8 Oeste 25 Oeste 0 905.3 -0.9 24
2019-06-20 18:00:00 28.2 9 Sudoeste 27 Sudoeste 0 905.7 -0.7 25
2019-06-20 17:00:00 27.8 9 Sudoeste 24 Oeste 0 905.6 -1.2 26
2019-06-20 16:00:00 27.7 11 Oeste 24 Sudoeste 0 906.2 -1.3 25
2019-06-20 15:00:00 28.2 10 Oeste 21 Sudoeste 0 906.4 -0.9 24
2019-06-20 14:00:00 26.8 6 Noroeste 18 Sudoeste 0 906.8 -0.7 29
2019-06-20 13:00:00 26 9 Sudoeste 21 Oeste 0 907.5 -0.2 31
2019-06-20 12:00:00 25.5 3 Sur 15 Sudoeste 0 907.3 -0.6 34
2019-06-20 11:00:00 23.3 4 Noroeste 9 Noroeste 0 907.5 -0.2 37
2019-06-20 10:00:00 21 0 Calma 5 Sudoeste 0 907.7 0 46
2019-06-20 09:00:00 15.9 2 Nordeste 6 Oeste 0 907.9 0.2 62
2019-06-20 08:00:00 13.2 2 Sudoeste 4 Sudoeste 0 907.7 0 65
2019-06-20 07:00:00 13.4 0 Calma 4 Nordeste 0 907.7 -0.2 63
2019-06-20 06:00:00 14 2 Sudoeste 8 Oeste 0 907.7 -0.5 62
2019-06-20 05:00:00 14.9 3 Oeste 8 Oeste 0 907.7 -0.7 59
2019-06-20 04:00:00 15.9 2 Sudeste 7 Sudoeste 0 907.9 -0.4 56
2019-06-20 03:00:00 17.6 0 Calma 6 Norte 0 908.2 0.3 53
2019-06-20 02:00:00 19.1 2 Sudoeste 11 Norte 0 908.4 0.5 48
2019-06-20 01:00:00 20.1 5 Norte 22 Norte 0 908.3 0.8 46
2019-06-20 00:00:00 21.2 4 Noroeste 15 Norte 0 907.9 0.6 43
2019-06-19 23:00:00 22.4 4 Noroeste 16 Noroeste 0 907.9 0.8 40
2019-06-19 22:00:00 23.7 7 Noroeste 17 Oeste 0 907.5 0.5 36
2019-06-19 21:00:00 25.2 9 Oeste 21 Noroeste 0 907.3 0.1 30
2019-06-19 20:00:00 26.6 10 Oeste 26 Sudoeste 0 907.1 -0.4 27
2019-06-19 19:00:00 28.4 11 Oeste 30 Oeste 0 907 -0.9 25
2019-06-19 18:00:00 29 9 Oeste 24 Sur 0 907.2 -1.3 23
2019-06-19 17:00:00 28.3 10 Sudoeste 25 Oeste 0 907.5 -1.4 25
2019-06-19 16:00:00 27.3 8 Oeste 28 Oeste 0 907.9 -1.3 29
2019-06-19 15:00:00 27.1 11 Oeste 22 Oeste 0 908.5 -0.8 30
2019-06-19 14:00:00 25.6 9 Sudoeste 23 Oeste 0 908.9 -0.2 35
2019-06-19 13:00:00 24.1 7 Oeste 21 Oeste 0 909.2 0 37
2019-06-19 12:00:00 22.7 10 Sudoeste 21 Sudoeste 0 909.3 0.1 42
2019-06-19 11:00:00 21.5 6 Oeste 14 Oeste 0 909.1 0.2 48
2019-06-19 10:00:00 19.1 4 Noroeste 9 Noroeste 0 909.2 0.7 59
2019-06-19 09:00:00 15.8 3 Sur 6 Noroeste 0 909.2 0.9 54
2019-06-19 08:00:00 12.5 0 Calma 4 Sudoeste 0 908.9 0.8 51
2019-06-19 07:00:00 12.4 0 Calma 6 Oeste 0 908.5 0.4 47
2019-06-19 06:00:00 13.3 0 Calma 6 Norte 0 908.3 -0.1 46
2019-06-19 05:00:00 14.1 2 Noroeste 6 Norte 0 908.1 -0.4 41
2019-06-19 04:00:00 14.9 0 Calma 5 Oeste 0 908.1 -0.5 37
2019-06-19 03:00:00 16.2 0 Calma 6 Norte 0 908.4 0 34
2019-06-19 02:00:00 18 2 Oeste 4 Sudoeste 0 908.5 0.4 30
2019-06-19 01:00:00 20.1 0 Calma 8 Oeste 0 908.6 1 26
2019-06-19 00:00:00 21.8 4 Oeste 13 Oeste 0 908.4 1.2 21
2019-06-18 23:00:00 23.7 6 Oeste 21 Sudoeste 0 908.1 1.1 19
2019-06-18 22:00:00 25.2 9 Oeste 24 Sudoeste 0 907.6 0.9 17
2019-06-18 21:00:00 26.8 11 Oeste 30 Sudoeste 0 907.2 0.4 17
2019-06-18 20:00:00 28.2 15 Sudoeste 35 Sudoeste 0 907 0.1 14
2019-06-18 19:00:00 29.8 15 Sudoeste 35 Sudoeste 0 906.7 -0.8 14
2019-06-18 18:00:00 30.5 16 Sudoeste 42 Sudoeste 0 906.8 -1.1 13
2019-06-18 17:00:00 30.6 12 Sudoeste 39 Noroeste 0 906.9 -1.3 17
2019-06-18 16:00:00 30 13 Sudoeste 39 Sudoeste 0 907.5 -1.2 19
2019-06-18 15:00:00 29.2 15 Sudoeste 32 Oeste 0 907.9 -1.1 18
2019-06-18 14:00:00 28.2 14 Sudoeste 31 Sudoeste 0 908.2 -0.7 21
2019-06-18 13:00:00 27.6 12 Sudoeste 27 Sudoeste 0 908.7 -0.5 22
2019-06-18 12:00:00 26.2 8 Sudoeste 19 Sur 0 909 -0.2 25
2019-06-18 11:00:00 24.3 5 Sudoeste 18 Sudoeste 0 908.9 0.1 25
2019-06-18 10:00:00 22.4 5 Sur 15 Este 0 909.2 0.7 31
2019-06-18 09:00:00 19.1 7 Sur 15 Sur 0 909.2 0.8 43
2019-06-18 08:00:00 16.1 2 Oeste 10 Sudeste 0 908.8 0.4 51
2019-06-18 07:00:00 16.6 3 Sur 16 Sudeste 0 908.5 -0.2 50
2019-06-18 06:00:00 17.5 2 Sudoeste 9 Sur 0 908.4 -0.4 47
2019-06-18 05:00:00 18.3 6 Sur 17 Sudeste 0 908.4 -0.6 44
2019-06-18 04:00:00 19.1 11 Sudeste 27 Sudeste 0 908.7 -0.5 43
2019-06-18 03:00:00 20.3 10 Sudeste 24 Sudeste 0 908.8 -0.4 40
2019-06-18 02:00:00 21.3 12 Sudeste 25 Sur 0 909 0.3 38
2019-06-18 01:00:00 22 12 Sudeste 23 Sudeste 0 909.2 1.1 39
2019-06-18 00:00:00 22.5 6 Sudeste 24 Sudeste 0 909.2 1.2 37
2019-06-17 23:00:00 23.6 4 Sur 7 Sudeste 0 908.7 0.6 26
2019-06-17 22:00:00 25.8 3 Oeste 10 Sudoeste 0 908.1 0.2 23
2019-06-17 21:00:00 27 6 Oeste 19 Noroeste 0 908 -0.2 19
2019-06-17 20:00:00 28.4 11 Sudoeste 22 Oeste 0 908.1 -0.5 17
2019-06-17 19:00:00 30.4 8 Oeste 23 Oeste 0 907.9 -1 15
2019-06-17 18:00:00 30.6 11 Sudoeste 31 Sudoeste 0 908.2 -1.2 15
2019-06-17 17:00:00 30.3 9 Sudoeste 32 Oeste 0 908.6 -1.5 16
2019-06-17 16:00:00 30.4 10 Oeste 25 Sudeste 0 908.9 -1.5 17
2019-06-17 15:00:00 29.2 9 Sudoeste 25 Sudoeste 0 909.4 -1.4 16
2019-06-17 14:00:00 28.6 9 Oeste 22 Sudoeste 0 910.1 -0.9 16
2019-06-17 13:00:00 27.2 5 Sur 14 Sur 0 910.4 -0.9 22
2019-06-17 12:00:00 24.9 3 Sudoeste 9 Noroeste 0 910.8 -0.3 28
2019-06-17 11:00:00 22.9 5 Sudoeste 11 Sur 0 911 0.1 33
2019-06-17 10:00:00 20.1 5 Sudoeste 10 Sur 0 911.3 0.5 41
2019-06-17 09:00:00 15.2 0 Calma 4 Oeste 0 911.1 0.4 70
2019-06-17 08:00:00 12.4 0 Calma 4 Sudoeste 0 910.9 0.4 77
2019-06-17 07:00:00 12.3 0 Calma 4 Oeste 0 910.8 0.1 76
2019-06-17 06:00:00 12.9 3 Sudoeste 7 Oeste 0 910.7 -0.4 75
2019-06-17 05:00:00 13.8 2 Sudoeste 5 Oeste 0 910.5 -0.7 70
2019-06-17 04:00:00 14.9 3 Sudoeste 6 Sudoeste 0 910.7 -0.7 64
2019-06-17 03:00:00 16.3 0 Calma 8 Sur 0 911.1 -0.5 61
2019-06-17 02:00:00 17.6 4 Sudeste 10 Sudeste 0 911.2 -0.1 60
2019-06-17 01:00:00 18.7 3 Sudeste 16 Sur 0 911.4 0.6 56
2019-06-17 00:00:00 19.8 9 Sur 19 Sur 0 911.6 1.2 51
2019-06-16 23:00:00 20.8 9 Sudeste 19 Sudeste 0 911.3 0.9 47
2019-06-16 22:00:00 22 7 Sudeste 17 Sur 0 910.8 0.6 38
2019-06-16 21:00:00 23.7 7 Sur 16 Sudoeste 0 910.4 -0.1 30
2019-06-16 20:00:00 24.5 7 Sur 19 Sudoeste 0 910.4 -0.2 31
2019-06-16 19:00:00 25 6 Sur 18 Sur 0 910.2 -0.7 26
2019-06-16 18:00:00 25.2 10 Sur 20 Sur 0 910.5 -0.9 29
2019-06-16 17:00:00 26.2 7 Sur 28 Sudeste 0 910.6 -1 27
2019-06-16 16:00:00 26.4 7 Sudeste 26 Sur 0 910.9 -0.9 27
2019-06-16 15:00:00 26.7 13 Sudoeste 33 Sur 0 911.4 -0.8 26
2019-06-16 14:00:00 26.7 12 Sur 25 Sudoeste 0 911.6 -0.5 26
2019-06-16 13:00:00 25.5 13 Sudeste 28 Sudeste 0 911.8 -0.4 30
2019-06-16 12:00:00 23.7 13 Sudeste 30 Sur 0 912.2 -0.1 31
2019-06-16 11:00:00 21.8 12 Sur 28 Sur 0 912.1 0.2 33
2019-06-16 10:00:00 20.1 12 Sudeste 26 Sudeste 0 912.2 0.7 34
2019-06-16 09:00:00 14.1 2 Noroeste 5 Noroeste 0 912.3 1 48
2019-06-16 08:00:00 10.6 0 Calma 4 Noroeste 0 911.9 0.4 54
2019-06-16 07:00:00 10.2 0 Calma 3 Oeste 0 911.5 -0.4 53
2019-06-16 06:00:00 10.6 0 Calma 4 Sudoeste 0 911.3 -0.8 49
2019-06-16 05:00:00 10.9 0 Calma 5 Norte 0 911.5 -0.8 45
2019-06-16 04:00:00 11.5 0 Calma 6 Sudoeste 0 911.9 -0.2 43
2019-06-16 03:00:00 12.5 0 Calma 5 Norte 0 912.1 -0.1 42
2019-06-16 02:00:00 13.5 2 Nordeste 6 Oeste 0 912.3 0.4 40
2019-06-16 01:00:00 15 3 Oeste 6 Oeste 0 912.1 1.1 36
2019-06-16 00:00:00 16.6 5 Norte 8 Norte 0 912.2 1.5 32
2019-06-15 23:00:00 19 3 Norte 5 Norte 0 911.9 1.6 28
2019-06-15 22:00:00 21.1 2 Noroeste 15 Noroeste 0 911 1 23
2019-06-15 21:00:00 22.4 10 Noroeste 22 Noroeste 0 910.7 0.6 19
2019-06-15 20:00:00 24.1 4 Noroeste 18 Oeste 0 910.3 -0.1 18
2019-06-15 19:00:00 25.7 8 Oeste 21 Noroeste 0 910 -0.4 18
2019-06-15 18:00:00 25.6 9 Sudoeste 25 Sudoeste 0 910.1 -0.5 19
2019-06-15 17:00:00 25.3 7 Oeste 19 Oeste 0 910.4 -0.6 18
2019-06-15 16:00:00 24.7 7 Sudoeste 19 Sudoeste 0 910.4 -1 20
2019-06-15 15:00:00 22.8 4 Sur 18 Oeste 0 910.6 -0.8 25
2019-06-15 14:00:00 21.9 3 Sudeste 17 Oeste 0 911 -0.2 28
2019-06-15 13:00:00 20.7 6 Oeste 17 Oeste 0 911.4 0.2 30
2019-06-15 12:00:00 19 7 Sudoeste 19 Noroeste 0 911.4 0.3 33
2019-06-15 11:00:00 17.5 8 Noroeste 17 Noroeste 0 911.2 0.4 37
2019-06-15 10:00:00 15.4 6 Oeste 16 Noroeste 0 911.2 0.8 45
2019-06-15 09:00:00 11.9 3 Norte 5 Noroeste 0 911.1 1.2 56
2019-06-15 08:00:00 9.5 4 Norte 9 Norte 0 910.8 1 60
2019-06-15 07:00:00 10.5 3 Norte 8 Norte 0 910.4 0.7 56
2019-06-15 06:00:00 11.2 3 Norte 7 Norte 0 909.9 0.1 53
2019-06-15 05:00:00 12 3 Norte 10 Norte 0 909.8 0.1 50
2019-06-15 04:00:00 12.8 2 Noroeste 10 Noroeste 0 909.7 0.2 47
2019-06-15 03:00:00 13.7 4 Noroeste 18 Noroeste 0 909.8 0.7 43
2019-06-15 02:00:00 15 5 Noroeste 25 Oeste 0 909.7 1.4 38
2019-06-15 01:00:00 15.6 5 Oeste 13 Oeste 0 909.5 2 34
2019-06-15 00:00:00 16.8 5 Noroeste 20 Noroeste 0 909.1 2.2 32
2019-06-14 23:00:00 18.5 6 Noroeste 17 Noroeste 0 908.3 2.2 29
2019-06-14 22:00:00 20.1 10 Oeste 26 Oeste 0 907.5 1.7 26
2019-06-14 21:00:00 21.5 12 Oeste 29 Oeste 0 906.9 1.1 23
2019-06-14 20:00:00 23 10 Oeste 36 Sudoeste 0 906.1 0.3 21
2019-06-14 19:00:00 24.7 15 Sudoeste 45 Sudoeste 0 905.8 0.1 17
2019-06-14 18:00:00 25.6 14 Sudoeste 33 Sudoeste 0 905.8 0.1 17
2019-06-14 17:00:00 25.5 17 Sudoeste 37 Oeste 0 905.8 -0.1 17
2019-06-14 16:00:00 25.6 12 Sudoeste 35 Sudoeste 0 905.7 0.1 21
2019-06-14 15:00:00 24.9 13 Sudoeste 32 Sudoeste 0 905.7 0.1 25
2019-06-14 14:00:00 24.2 13 Oeste 26 Sudoeste 0 905.9 0.4 29
2019-06-14 13:00:00 22.8 9 Sudoeste 26 Oeste 0 905.6 0 31
2019-06-14 12:00:00 21.7 11 Oeste 28 Oeste 0 905.6 0.3 31
2019-06-14 11:00:00 18.8 6 Noroeste 15 Noroeste 0 905.5 0.7 55
2019-06-14 10:00:00 16.3 5 Sudoeste 13 Sudeste 0 905.6 1.8 68
2019-06-14 09:00:00 15.3 8 Sur 12 Sur 0 905.3 1.9 72
2019-06-14 08:00:00 14.1 4 Sudeste 11 Sudeste 0 904.8 1 81
2019-06-14 07:00:00 13.9 4 Sudoeste 8 Sudoeste 0 903.8 -0.3 79
2019-06-14 06:00:00 14.2 3 Norte 6 Sudoeste 0 903.4 -0.6 77
2019-06-14 05:00:00 14.2 5 Oeste 8 Sudoeste 0 903.8 -0.5 79
2019-06-14 04:00:00 14.5 2 Oeste 5 Sudeste 0 904.1 -0.9 77
2019-06-14 03:00:00 15 4 Sudeste 12 Sur 0 904 -0.7 75
2019-06-14 02:00:00 15.7 4 Sur 14 Sur 0 904.3 0.3 72
2019-06-14 01:00:00 16.6 8 Sur 19 Sudeste 0 905 1.5 68
2019-06-14 00:00:00 17.2 7 Sudeste 19 Sudeste 0 904.7 1.6 65
2019-06-13 23:00:00 17.9 5 Sudeste 23 Sur 0 904 1.2 62
2019-06-13 22:00:00 19.2 11 Sudeste 41 Sudeste 0 903.5 0.7 59
2019-06-13 21:00:00 22.3 8 Sur 18 Sudeste 0 903.1 0 41
2019-06-13 20:00:00 23.3 6 Sur 20 Sur 0 902.8 -0.9 38
2019-06-13 19:00:00 24.2 9 Sur 23 Sudeste 0 902.8 -1 36
2019-06-13 18:00:00 23.8 9 Sur 26 Sur 0 903.1 -1.2 37
2019-06-13 17:00:00 23.3 11 Sur 26 Sudeste 0 903.7 -1.1 39
2019-06-13 16:00:00 22.6 13 Sur 28 Sur 0 903.8 -1.4 40
2019-06-13 15:00:00 22.7 14 Sur 30 Sudeste 0 904.3 -1.2 41
2019-06-13 14:00:00 20.7 12 Sudeste 27 Sudeste 0 904.8 -0.7 46
2019-06-13 13:00:00 19 13 Sudeste 31 Sudeste 0 905.2 -0.4 53
2019-06-13 12:00:00 18.7 15 Sur 33 Sur 0 905.5 0.2 56
2019-06-13 11:00:00 17.9 15 Sur 35 Sudeste 0 905.5 0.5 60
2019-06-13 10:00:00 15.8 18 Sudeste 34 Sudeste 0 905.6 0.8 68
2019-06-13 09:00:00 14.9 17 Sudeste 32 Sudeste 0 905.3 0.8 72
2019-06-13 08:00:00 13.7 14 Sudeste 30 Sudeste 0 905 0.5 78
2019-06-13 07:00:00 13 14 Sudeste 33 Sur 0 904.8 0.3 80
2019-06-13 06:00:00 13 14 Sudeste 31 Sudeste 0 904.5 -0.4 78
2019-06-13 05:00:00 12.9 15 Sudeste 32 Sur 0 904.5 -0.7 80
2019-06-13 04:00:00 12.3 14 Sudeste 28 Sudeste 0 904.5 -0.9 79
2019-06-13 03:00:00 12.3 14 Sudeste 30 Sudeste 0 904.9 -0.3 76
2019-06-13 02:00:00 12.8 13 Sudeste 33 Sudeste 0 905.2 0.3 69
2019-06-13 01:00:00 13.6 12 Sudeste 32 Sur 0 905.4 1.1 61
2019-06-13 00:00:00 14.5 15 Sudeste 37 Sudeste 0 905.2 1.5 57
2019-06-12 23:00:00 15.7 17 Sudeste 35 Sudeste 0 904.9 1.3 54
2019-06-12 22:00:00 17.7 14 Sudeste 33 Sudeste 0 904.3 0.9 50
2019-06-12 21:00:00 21.4 8 Sudoeste 27 Sudoeste 0 903.7 -0.2 18
2019-06-12 20:00:00 22.7 12 Oeste 27 Oeste 0 903.6 -1.1 16
2019-06-12 19:00:00 24.1 12 Sudoeste 33 Sur 0 903.4 -1.5 19
2019-06-12 18:00:00 23.9 8 Sur 31 Sur 0 903.9 -1.4 21
2019-06-12 17:00:00 21.8 11 Sur 33 Sudeste 0 904.7 -1.2 25
2019-06-12 16:00:00 23 9 Sudoeste 28 Sudoeste 0 904.9 -1.5 23
2019-06-12 15:00:00 21.8 10 Sur 28 Sudeste 0 905.3 -1.5 24
2019-06-12 14:00:00 20.7 9 Sur 27 Sur 0 905.9 -1.1 23
2019-06-12 13:00:00 19.7 10 Sudoeste 45 Sudeste 0 906.4 -0.9 25
2019-06-12 12:00:00 18.1 7 Sudoeste 22 Sudoeste 0 906.8 -0.4 28
2019-06-12 11:00:00 16.4 8 Sudeste 18 Sur 0 907 0.1 33
2019-06-12 10:00:00 13.8 10 Sur 25 Sur 0 907.3 0.7 45
2019-06-12 09:00:00 8.4 2 Oeste 5 Sudoeste 0 907.2 0.9 59
2019-06-12 08:00:00 5.1 0 Calma 7 Norte 0 906.9 0.9 69
2019-06-12 07:00:00 4.7 3 Noroeste 5 Norte 0 906.6 0.3 68
2019-06-12 06:00:00 5.4 4 Norte 7 Norte 0 906.3 -0.2 65
2019-06-12 05:00:00 6.4 2 Sudeste 5 Oeste 0 906 -0.9 62
2019-06-12 04:00:00 7.2 2 Nordeste 10 Norte 0 906.3 -0.8 59
2019-06-12 03:00:00 8.1 3 Norte 8 Norte 0 906.5 -0.2 56
2019-06-12 02:00:00 9.3 4 Sudoeste 8 Sudoeste 0 906.9 0.2 51
2019-06-12 01:00:00 10.6 2 Este 15 Nordeste 0 907.1 1 47
2019-06-12 00:00:00 11.5 11 Nordeste 23 Norte 0 906.7 0.9 49
2019-06-11 23:00:00 12.8 13 Nordeste 21 Nordeste 0 906.7 1.3 43
2019-06-11 22:00:00 14.8 4 Norte 17 Nordeste 0 906.1 1.1 38
2019-06-11 21:00:00 16.1 5 Noroeste 19 Noroeste 0 905.8 1.1 34
2019-06-11 20:00:00 17.1 8 Norte 30 Norte 0 905.4 0.6 34
2019-06-11 19:00:00 18.2 12 Norte 29 Norte 0 905 0.2 33
2019-06-11 18:00:00 19.1 10 Noroeste 27 Oeste 0 904.7 0.3 28
2019-06-11 17:00:00 19.3 12 Norte 29 Norte 0 904.8 1 31
2019-06-11 16:00:00 17.6 12 Norte 37 Noroeste 0 904.8 1.6 39
2019-06-11 15:00:00 18.5 11 Norte 30 Norte 0 904.4 1.3 38
2019-06-11 14:00:00 19.6 7 Noroeste 25 Noroeste 0 903.8 0.4 35
2019-06-11 13:00:00 19.2 9 Noroeste 27 Norte 0 903.2 0 36
2019-06-11 12:00:00 18.9 10 Nordeste 23 Nordeste 0 903.1 0 38
2019-06-11 11:00:00 16.1 4 Noroeste 10 Oeste 0 903.4 0.2 46
2019-06-11 10:00:00 13.8 5 Noroeste 12 Noroeste 0 903.2 -0.2 54
2019-06-11 09:00:00 12.2 3 Oeste 7 Oeste 0 903.1 -0.2 54
2019-06-11 08:00:00 11 2 Sur 5 Oeste 0 903.2 -0.4 55
2019-06-11 07:00:00 10.3 0 Calma 11 Norte 0 903.4 -0.5 61
2019-06-11 06:00:00 10.5 3 Nordeste 7 Norte 0 903.3 -1.2 55
2019-06-11 05:00:00 11 2 Sudoeste 6 Norte 0 903.6 -1.3 46
2019-06-11 04:00:00 11.6 2 Oeste 5 Oeste 0 903.9 -1.3 44
2019-06-11 03:00:00 12.7 0 Calma 5 Sudoeste 0 904.5 -0.9 41
2019-06-11 02:00:00 13.7 4 Oeste 6 Oeste 0 904.9 -0.8 37
2019-06-11 01:00:00 15.5 0 Calma 8 Norte 0 905.2 -0.3 34
2019-06-11 00:00:00 17.5 3 Oeste 6 Nordeste 0 905.4 0 28
2019-06-10 23:00:00 19.3 4 Norte 17 Noroeste 0 905.7 0.2 24
2019-06-10 22:00:00 20.7 8 Oeste 15 Noroeste 0 905.5 0 25
2019-06-10 21:00:00 22 8 Noroeste 20 Oeste 0 905.4 -0.5 24
2019-06-10 20:00:00 22.9 9 Oeste 24 Oeste 0 905.5 -0.7 22
2019-06-10 19:00:00 24.3 9 Noroeste 27 Oeste 0 905.5 -0.8 23
2019-06-10 18:00:00 24.5 8 Noroeste 25 Noroeste 0 905.9 -0.9 23
2019-06-10 17:00:00 24.6 6 Noroeste 25 Oeste 0 906.2 -1.3 22
2019-06-10 16:00:00 25.3 8 Noroeste 23 Oeste 0 906.3 -1.7 22
2019-06-10 15:00:00 24.1 9 Norte 22 Oeste 0 906.8 -1.4 24
2019-06-10 14:00:00 23.6 6 Noroeste 24 Noroeste 0 907.5 -0.7 26
2019-06-10 13:00:00 22.3 8 Noroeste 23 Oeste 0 908 -0.3 25
2019-06-10 12:00:00 20.9 9 Noroeste 27 Noroeste 0 908.2 -0.3 26
2019-06-10 11:00:00 20.6 5 Noroeste 22 Nordeste 0 908.2 -0.2 33
2019-06-10 10:00:00 17.1 2 Noroeste 8 Noroeste 0 908.3 0.3 42
2019-06-10 09:00:00 12.7 0 Calma 12 Norte 0 908.5 1 50
2019-06-10 08:00:00 9.7 8 Norte 18 Norte 0 908.4 0.6 55
2019-06-10 07:00:00 9.5 3 Noroeste 8 Noroeste 0 908 -0.2 55
2019-06-10 06:00:00 10.3 4 Norte 19 Norte 0 907.5 -0.7 51
2019-06-10 05:00:00 12.1 3 Norte 10 Norte 0 907.8 -0.7 46
2019-06-10 04:00:00 13.3 2 Oeste 8 Norte 0 908.2 -0.6 41
2019-06-10 03:00:00 15 0 Calma 5 Nordeste 0 908.2 -0.5 35
2019-06-10 02:00:00 16.6 4 Norte 8 Nordeste 0 908.5 0.1 33
2019-06-10 01:00:00 17.8 4 Norte 8 Norte 0 908.8 1 27
2019-06-10 00:00:00 19.1 4 Norte 8 Norte 0 908.7 1.3 24
2019-06-09 23:00:00 20.3 3 Noroeste 11 Noroeste 0 908.4 1.3 22
2019-06-09 22:00:00 21.9 7 Oeste 20 Oeste 0 907.8 1 21
2019-06-09 21:00:00 23.4 11 Oeste 24 Noroeste 0 907.4 0.3 19
2019-06-09 20:00:00 25.1 9 Oeste 28 Oeste 0 907.1 -0.2 19
2019-06-09 19:00:00 26.9 10 Oeste 27 Sudoeste 0 906.8 -1.1 18
2019-06-09 18:00:00 26.8 12 Oeste 28 Oeste 0 907.1 -1.1 18
2019-06-09 17:00:00 27 9 Oeste 28 Oeste 0 907.3 -1.3 18
2019-06-09 16:00:00 26.3 12 Oeste 34 Oeste 0 907.9 -1.2 19
2019-06-09 15:00:00 26.1 11 Oeste 32 Sudoeste 0 908.2 -1.4 21
2019-06-09 14:00:00 25.8 8 Sudoeste 33 Oeste 0 908.6 -1 24
2019-06-09 13:00:00 24.7 10 Sudoeste 23 Noroeste 0 909.1 -0.6 27
2019-06-09 12:00:00 23 4 Oeste 12 Sudoeste 0 909.6 -0.2 33
2019-06-09 11:00:00 21.2 4 Oeste 11 Sur 0 909.6 -0.2 41
2019-06-09 10:00:00 19 3 Sur 13 Sudeste 0 909.7 0 46
2019-06-09 09:00:00 15.7 5 Sur 9 Sur 0 909.8 0.2 54
2019-06-09 08:00:00 14.1 3 Sudoeste 6 Sur 0 909.8 0 56
2019-06-09 07:00:00 14.2 4 Sur 16 Sur 0 909.7 -0.3 55
2019-06-09 06:00:00 15.2 7 Sudeste 18 Sur 0 909.6 -0.6 51
2019-06-09 05:00:00 15.5 7 Sur 17 Sur 0 909.8 -0.8 50
2019-06-09 04:00:00 15.4 9 Sur 25 Sur 0 910 -1.3 50
2019-06-09 03:00:00 15.7 7 Sur 21 Sur 0 910.2 -1.1 50
2019-06-09 02:00:00 16.4 12 Sur 26 Sudeste 0 910.6 -0.9 48
2019-06-09 01:00:00 16 11 Sur 20 Sur 0 911.3 0.2 52
2019-06-09 00:00:00 16.1 10 Sudeste 18 Sudeste 0 911.3 0.3 51
2019-06-08 23:00:00 16.8 6 Sudeste 21 Sudeste 0 911.5 0.6 48
2019-06-08 22:00:00 17.8 10 Sudeste 26 Sur 0 911.1 0.5 46
2019-06-08 21:00:00 19.2 13 Sudeste 33 Sur 0 911 0.1 42
2019-06-08 20:00:00 20.2 14 Sudeste 31 Sudeste 0 910.9 -0.4 42
2019-06-08 19:00:00 20.9 18 Sudeste 36 Sur 0 910.6 -0.7 40
2019-06-08 18:00:00 22.3 17 Sudeste 35 Sudeste 0 910.9 -0.7 39
2019-06-08 17:00:00 22.3 19 Sudeste 40 Sudeste 0 911.3 -1 38
2019-06-08 16:00:00 24.4 18 Sur 39 Sudeste 0 911.3 -1.4 34
2019-06-08 15:00:00 24.1 18 Sudeste 37 Sudeste 0 911.6 -1.1 36
2019-06-08 14:00:00 23.3 15 Sudeste 42 Sudeste 0 912.3 -0.3 39
2019-06-08 13:00:00 21.8 18 Sudeste 37 Sur 0 912.7 0 41
2019-06-08 12:00:00 20.6 16 Sudeste 41 Sur 0 912.7 0.3 42
2019-06-08 11:00:00 19.4 20 Sudeste 35 Sur 0 912.6 0.2 40
2019-06-08 10:00:00 17.9 18 Sudeste 42 Sudeste 0 912.7 0.4 40
2019-06-08 09:00:00 16 11 Sudeste 27 Sudeste 0 912.4 0.2 43
2019-06-08 08:00:00 10.6 3 Noroeste 8 Noroeste 0 912.4 0.1 52
2019-06-08 07:00:00 9.8 3 Noroeste 6 Noroeste 0 912.3 -0.2 51
2019-06-08 06:00:00 9.3 2 Oeste 4 Sudoeste 0 912.2 -0.2 53
2019-06-08 05:00:00 9.4 0 Calma 5 Norte 0 912.3 -0.1 48
2019-06-08 04:00:00 10 0 Calma 4 Norte 0 912.5 0.2 45
2019-06-08 03:00:00 10.4 3 Norte 15 Norte 0 912.4 0.1 41
2019-06-08 02:00:00 10.8 4 Sur 14 Sur 0 912.4 0.1 42
2019-06-08 01:00:00 11.7 2 Sudoeste 11 Nordeste 0 912.3 0.9 38
2019-06-08 00:00:00 13.9 7 Nordeste 18 Nordeste 0 912.3 1.4 34
2019-06-07 23:00:00 15.4 4 Norte 10 Norte 0 912.3 1.9 31
2019-06-07 22:00:00 17.6 3 Norte 14 Noroeste 0 911.4 1.5 25
2019-06-07 21:00:00 19 6 Noroeste 18 Noroeste 0 910.9 1.3 22
2019-06-07 20:00:00 20.2 6 Oeste 24 Noroeste 0 910.4 1 20
2019-06-07 19:00:00 21.6 8 Noroeste 23 Oeste 0 909.9 0.7 19
2019-06-07 18:00:00 21.7 8 Oeste 24 Oeste 0 909.6 0.5 18
2019-06-07 17:00:00 21.8 9 Sudoeste 25 Noroeste 0 909.4 0.4 20
2019-06-07 16:00:00 20.9 8 Oeste 22 Oeste 0 909.2 0.5 22
2019-06-07 15:00:00 19.9 9 Noroeste 23 Noroeste 0 909.1 1.1 23
2019-06-07 14:00:00 18.5 8 Oeste 23 Sudoeste 0 909 1.3 25
2019-06-07 13:00:00 17.5 8 Oeste 24 Noroeste 0 908.7 1.4 27
2019-06-07 12:00:00 16 9 Oeste 28 Oeste 0 908 1.6 39
2019-06-07 11:00:00 13.4 6 Noroeste 23 Noroeste 0 907.7 2.1 62
2019-06-07 10:00:00 11.4 6 Noroeste 26 Noroeste 0 907.3 2.4 77
2019-06-07 09:00:00 11.6 10 Noroeste 26 Oeste 0.4 906.4 2 83
2019-06-07 08:00:00 13.1 9 Sudoeste 20 Oeste 0 905.6 1.6 63
2019-06-07 07:00:00 13.3 7 Sudoeste 26 Sudoeste 0 904.9 1 55
2019-06-07 06:00:00 13 5 Sudoeste 17 Oeste 0 904.4 0.8 47
2019-06-07 05:00:00 13 4 Sur 18 Sudoeste 0 904 0.4 48
2019-06-07 04:00:00 13 4 Sudeste 14 Sur 0 903.9 0.3 37
2019-06-07 03:00:00 13.6 8 Sudeste 17 Sur 0 903.6 0.2 41
2019-06-07 02:00:00 14 8 Sudeste 23 Sudeste 0 903.6 0.5 59
2019-06-07 01:00:00 14.7 12 Sudeste 38 Sudeste 0 903.6 1.2 67
2019-06-07 00:00:00 15.7 16 Sudeste 35 Sudeste 0 903.4 1 66
2019-06-06 23:00:00 17.3 17 Sur 33 Sudeste 0 903.1 0.9 63
2019-06-06 22:00:00 20.6 8 Sur 23 Sudoeste 0 902.4 0.1 17
2019-06-06 21:00:00 22 13 Sudoeste 33 Sudoeste 0 902.4 -0.3 17
2019-06-06 20:00:00 23.3 13 Sudoeste 36 Oeste 0 902.2 -1.3 17
2019-06-06 19:00:00 24.5 16 Sudoeste 43 Sudoeste 0 902.3 -2.2 17
2019-06-06 18:00:00 24.8 16 Sudoeste 37 Sudoeste 0 902.7 -2.5 18
2019-06-06 17:00:00 23.4 14 Sudoeste 41 Sur 0 903.5 -2.3 23
2019-06-06 16:00:00 22.6 17 Sur 36 Sur 0 904.5 -1.6 24
2019-06-06 15:00:00 21.4 16 Sur 35 Sur 0 905.2 -1.1 24
2019-06-06 14:00:00 21 14 Sudoeste 36 Sudoeste 0 905.8 -0.6 24
2019-06-06 13:00:00 20 15 Sur 32 Sudoeste 0 906.1 -0.6 26
2019-06-06 12:00:00 18.7 12 Sudoeste 24 Oeste 0 906.3 -0.3 29
2019-06-06 11:00:00 17.6 12 Sudoeste 29 Sur 0 906.4 -0.3 32
2019-06-06 10:00:00 15.4 8 Sur 14 Sudeste 0 906.7 0.1 39
2019-06-06 09:00:00 11 4 Sur 12 Sur 0 906.6 0 51
2019-06-06 08:00:00 7.1 0 Calma 5 Sudoeste 0 906.7 0.4 61
2019-06-06 07:00:00 6.8 0 Calma 5 Oeste 0 906.6 0.2 61
2019-06-06 06:00:00 7.5 0 Calma 6 Oeste 0 906.6 0.1 58
2019-06-06 05:00:00 8.1 0 Calma 5 Oeste 0 906.3 -0.3 55
2019-06-06 04:00:00 9 0 Calma 4 Oeste 0 906.4 -0.2 52
2019-06-06 03:00:00 9.7 0 Calma 6 Oeste 0 906.5 0 49
2019-06-06 02:00:00 10.6 0 Calma 8 Norte 0 906.6 0.4 46
2019-06-06 01:00:00 11.8 3 Norte 6 Norte 0 906.6 0.9 43
2019-06-06 00:00:00 13.8 3 Sudoeste 6 Oeste 0 906.5 1.1 36
2019-06-05 23:00:00 15.2 2 Noroeste 13 Oeste 0 906.2 1.3 30
2019-06-05 22:00:00 16.2 6 Oeste 21 Noroeste 0 905.7 0.9 28
2019-06-05 21:00:00 17.6 10 Noroeste 24 Noroeste 0 905.4 0.8 26
2019-06-05 20:00:00 18.8 10 Oeste 32 Noroeste 0 904.9 0.3 24
2019-06-05 19:00:00 19.5 9 Oeste 27 Noroeste 0 904.8 0.3 24
2019-06-05 18:00:00 20.2 10 Noroeste 33 Noroeste 0 904.6 0.4 23
2019-06-05 17:00:00 20.4 7 Noroeste 33 Noroeste 0 904.6 0.5 24
2019-06-05 16:00:00 19.8 9 Noroeste 36 Noroeste 0 904.5 0.5 26
2019-06-05 15:00:00 19.5 10 Noroeste 49 Noroeste 0 904.2 0.5 24
2019-06-05 14:00:00 17.8 18 Noroeste 42 Noroeste 0 904.1 0.7 29
2019-06-05 13:00:00 17.1 18 Noroeste 46 Noroeste 0 904 0.6 33
2019-06-05 12:00:00 15.9 19 Noroeste 38 Noroeste 0 903.7 0.9 43
2019-06-05 11:00:00 13.9 11 Oeste 27 Oeste 0 903.4 1.4 55
2019-06-05 10:00:00 12.6 14 Oeste 31 Noroeste 0 903.4 1.7 59
2019-06-05 09:00:00 11.8 14 Noroeste 31 Oeste 0 902.8 1.2 66
2019-06-05 08:00:00 13 6 Oeste 21 Oeste 0.2 902 0.6 80
2019-06-05 07:00:00 13.8 12 Oeste 26 Oeste 0.8 901.7 0.2 77
2019-06-05 06:00:00 15.4 9 Noroeste 23 Oeste 0 901.6 -0.2 62
2019-06-05 05:00:00 16.2 9 Oeste 18 Oeste 0 901.4 -0.6 58
2019-06-05 04:00:00 17.2 5 Sudoeste 13 Oeste 0 901.5 -0.8 52
2019-06-05 03:00:00 18 3 Oeste 6 Norte 0 901.8 -0.5 49
2019-06-05 02:00:00 18.5 0 Calma 5 Norte 0 902 -0.4 46
2019-06-05 01:00:00 19.7 3 Norte 7 Noroeste 0 902.3 0.4 42
2019-06-05 00:00:00 21.2 3 Norte 10 Norte 0 902.3 0.4 38
2019-06-04 23:00:00 22.4 4 Noroeste 19 Noroeste 0 902.4 0.3 33
2019-06-04 22:00:00 24.1 7 Oeste 21 Noroeste 0 901.9 -0.4 30
2019-06-04 21:00:00 25.7 12 Oeste 30 Oeste 0 901.9 -0.8 27
2019-06-04 20:00:00 27.3 13 Oeste 29 Sudoeste 0 902.1 -1.1 24
2019-06-04 19:00:00 28.7 11 Sudoeste 31 Sudoeste 0 902.3 -1.6 22
2019-06-04 18:00:00 29.1 14 Sudoeste 37 Oeste 0 902.7 -1.7 22
2019-06-04 17:00:00 30.2 17 Sudoeste 36 Sudoeste 0 903.2 -2.1 19
2019-06-04 16:00:00 29.9 14 Sudoeste 34 Sudoeste 0 903.9 -1.8 18
2019-06-04 15:00:00 29.1 13 Sudoeste 35 Oeste 0 904.4 -2 18
2019-06-04 14:00:00 28.5 10 Sudoeste 35 Sudoeste 0 905.3 -1.1 19
2019-06-04 13:00:00 27.6 13 Sudoeste 30 Sudoeste 0 905.7 -1 21
2019-06-04 12:00:00 26 14 Sudoeste 24 Sudoeste 0 906.4 -0.5 26
2019-06-04 11:00:00 24.5 7 Sudoeste 14 Sudoeste 0 906.4 -0.4 32
2019-06-04 10:00:00 21.2 8 Sur 13 Sudeste 0 906.7 0.1 39
2019-06-04 09:00:00 16.7 2 Sudoeste 6 Oeste 0 906.9 0.5 53
2019-06-04 08:00:00 13.9 3 Oeste 6 Oeste 0 906.8 0 59
2019-06-04 07:00:00 13.9 3 Sur 6 Oeste 0 906.6 -0.3 59
2019-06-04 06:00:00 14.8 4 Oeste 6 Oeste 0 906.4 -0.9 55
2019-06-04 05:00:00 16.2 3 Oeste 6 Oeste 0 906.8 -0.9 51
2019-06-04 04:00:00 17.5 3 Noroeste 8 Noroeste 0 906.9 -1.3 50
2019-06-04 03:00:00 18.8 4 Sur 14 Sur 0 907.3 -1.4 45
2019-06-04 02:00:00 20.7 8 Sudeste 19 Sudeste 0 907.7 -1 41
2019-06-04 01:00:00 21.4 9 Sudeste 19 Sudeste 0 908.2 0.6 41
2019-06-04 00:00:00 22.7 8 Sudeste 25 Sudeste 0 908.7 1.1 37
2019-06-03 23:00:00 24.2 7 Sur 16 Sudeste 0 908.7 0.9 22
2019-06-03 22:00:00 26.5 3 Este 12 Sudoeste 0 907.6 -0.3 20
2019-06-03 21:00:00 28.6 8 Sudoeste 19 Sudoeste 0 907.6 -0.7 17
2019-06-03 20:00:00 29.8 10 Sudoeste 27 Oeste 0 907.8 -0.8 15
2019-06-03 19:00:00 31.6 10 Sudoeste 27 Sudoeste 0 907.9 -1.3 14
2019-06-03 18:00:00 32.2 11 Oeste 28 Oeste 0 908.3 -1.5 12
2019-06-03 17:00:00 32.1 11 Oeste 33 Oeste 0 908.6 -1.6 14
2019-06-03 16:00:00 32.1 13 Oeste 27 Oeste 0 909.2 -1.5 15
2019-06-03 15:00:00 31.4 15 Oeste 28 Oeste 0 909.8 -1.2 17
2019-06-03 14:00:00 29.8 6 Oeste 17 Noroeste 0 910.2 -0.8 19
2019-06-03 13:00:00 29.1 4 Sur 13 Sur 0 910.7 -0.5 21
2019-06-03 12:00:00 26.9 6 Sur 14 Sudeste 0 911 0 25
2019-06-03 11:00:00 23.8 8 Sur 14 Sur 0 911 0.1 29
2019-06-03 10:00:00 21.8 9 Sur 15 Sudeste 0 911.2 0.4 31
2019-06-03 09:00:00 18.2 2 Sudeste 5 Sudoeste 0 911 0.6 44
2019-06-03 08:00:00 15.8 0 Calma 4 Sudoeste 0 910.9 0.5 51
2019-06-03 07:00:00 15.6 0 Calma 8 Noroeste 0 910.8 0.3 47
2019-06-03 06:00:00 15.9 3 Oeste 6 Oeste 0 910.4 -0.8 47
2019-06-03 05:00:00 16.4 0 Calma 12 Sudeste 0 910.4 -0.8 43
2019-06-03 04:00:00 17.6 6 Sudeste 12 Sudeste 0 910.5 -1.1 40
2019-06-03 03:00:00 18.5 3 Noroeste 15 Sur 0 911.2 -0.4 39
2019-06-03 02:00:00 20 8 Sur 21 Sudeste 0 911.2 0 34
2019-06-03 01:00:00 20.5 9 Sudeste 25 Sur 0 911.6 1.2 34
2019-06-03 00:00:00 21.9 12 Sudeste 28 Sudeste 0 911.6 1.9 33
2019-06-02 23:00:00 23.2 12 Sudeste 26 Sudeste 0 911.2 1.6 32
2019-06-02 22:00:00 25.9 10 Sudeste 21 Sur 0 910.4 0.8 27
2019-06-02 21:00:00 28.5 4 Sudoeste 12 Oeste 0 909.7 -0.1 20
2019-06-02 20:00:00 30.1 6 Oeste 14 Oeste 0 909.6 -0.7 17
2019-06-02 19:00:00 31.1 4 Noroeste 20 Oeste 0 909.6 -0.9 16
2019-06-02 18:00:00 31.8 7 Oeste 17 Oeste 0 909.8 -1.3 14
2019-06-02 17:00:00 30.6 5 Sudoeste 19 Noroeste 0 910.3 -1.6 16
2019-06-02 16:00:00 31.6 6 Sudeste 18 Norte 0 910.5 -1.9 16
2019-06-02 15:00:00 30.8 4 Oeste 20 Oeste 0 911.1 -1.5 17
2019-06-02 14:00:00 30 6 Oeste 20 Oeste 0 911.9 -0.9 19
2019-06-02 13:00:00 28.1 7 Norte 16 Nordeste 0 912.4 -0.6 22
2019-06-02 12:00:00 26.4 4 Sudeste 12 Sur 0 912.6 -0.3 27
2019-06-02 11:00:00 23.7 6 Sudeste 12 Sur 0 912.8 -0.1 33
2019-06-02 10:00:00 20.3 3 Oeste 6 Oeste 0 913 0.3 39
2019-06-02 09:00:00 15.9 4 Sudeste 6 Sur 0 912.9 0.3 49
2019-06-02 08:00:00 12.6 0 Calma 5 Oeste 0 912.9 0.2 56
2019-06-02 07:00:00 12.9 0 Calma 4 Sur 0 912.7 -0.3 54
2019-06-02 06:00:00 13.6 2 Oeste 6 Norte 0 912.6 -0.7 50
2019-06-02 05:00:00 14.6 4 Oeste 5 Oeste 0 912.7 -0.8 48
2019-06-02 04:00:00 15.4 2 Oeste 5 Noroeste 0 913 -0.5 44
2019-06-02 03:00:00 17.3 3 Sudoeste 16 Sur 0 913.3 -0.1 39
2019-06-02 02:00:00 18.2 10 Sudeste 22 Sur 0 913.5 0.5 37
2019-06-02 01:00:00 18.8 11 Sudeste 26 Sudeste 0 913.5 1.1 38
2019-06-02 00:00:00 19.8 13 Sudeste 24 Sudeste 0 913.4 1.6 37
2019-06-01 23:00:00 21.3 11 Sudeste 27 Sudeste 0 913 1.7 35
2019-06-01 22:00:00 23.5 11 Sudeste 22 Sudeste 0 912.4 1.1 29
2019-06-01 21:00:00 26.2 11 Sur 20 Sur 0 911.8 0.5 23
2019-06-01 20:00:00 27.7 8 Sur 18 Sur 0 911.3 -0.5 21
2019-06-01 19:00:00 29.4 9 Sur 21 Sur 0 911.3 -1.1 19
2019-06-01 18:00:00 30.4 6 Nordeste 19 Sudoeste 0 911.3 -1.7 18
2019-06-01 17:00:00 31.3 9 Sur 18 Noroeste 0 911.8 -1.8 19
2019-06-01 16:00:00 30.6 4 Norte 19 Sudeste 0 912.4 -1.7 20
2019-06-01 15:00:00 29.1 5 Este 17 Sudeste 0 913 -1.6 22
2019-06-01 14:00:00 28.4 5 Sur 14 Sur 0 913.6 -1.2 23
2019-06-01 13:00:00 27.4 4 Oeste 16 Oeste 0 914.1 -1 26
2019-06-01 12:00:00 25.1 5 Sur 16 Sur 0 914.6 -0.6 30
2019-06-01 11:00:00 22.6 6 Sur 12 Sur 0 914.8 -0.4 35
2019-06-01 10:00:00 19.2 4 Sur 9 Sudeste 0 915.1 0.2 43
2019-06-01 09:00:00 15.1 2 Oeste 5 Oeste 0 915.2 0.5 57
2019-06-01 08:00:00 11.9 2 Sur 3 Norte 0 915.2 0.5 67
2019-06-01 07:00:00 12 0 Calma 3 Sudoeste 0 914.9 0 65
2019-06-01 06:00:00 12.8 0 Calma 4 Sudeste 0 914.7 -0.3 65
2019-06-01 05:00:00 13.7 2 Sur 4 Sudoeste 0 914.7 -0.5 61
2019-06-01 04:00:00 14.6 4 Sudoeste 6 Sudoeste 0 914.9 -0.5 56
2019-06-01 03:00:00 15.7 3 Sudeste 17 Sudeste 0 915 -0.4 53
2019-06-01 02:00:00 16.8 7 Sudeste 20 Sudeste 0 915.2 0.2 50
2019-06-01 01:00:00 17.5 10 Sudeste 24 Sudeste 0 915.4 1.3 50
2019-06-01 00:00:00 18.7 12 Sudeste 24 Sudeste 0 915.4 2 47
2019-05-31 23:00:00 20.3 10 Sudeste 23 Sur 0 915 1.7 47
2019-05-31 22:00:00 23.1 7 Sudeste 19 Sudeste 0 914.1 0.8 28
2019-05-31 21:00:00 25.3 8 Sur 20 Sur 0 913.4 -0.1 24
2019-05-31 20:00:00 27.2 9 Sur 19 Sudoeste 0 913.3 -0.4 22
2019-05-31 19:00:00 28.9 9 Sur 22 Sudoeste 0 913.3 -1.1 21
2019-05-31 18:00:00 29.6 10 Oeste 24 Sudoeste 0 913.5 -1.3 20
2019-05-31 17:00:00 29.8 6 Oeste 18 Sudoeste 0 913.7 -1.5 18
2019-05-31 16:00:00 29 8 Sudeste 19 Sudeste 0 914.4 -1.3 19
2019-05-31 15:00:00 27.9 7 Este 19 Sur 0 914.8 -1.3 20
2019-05-31 14:00:00 26.9 8 Oeste 19 Noroeste 0 915.2 -1.1 22
2019-05-31 13:00:00 25.8 5 Sudoeste 13 Oeste 0 915.7 -1 22
2019-05-31 12:00:00 23.9 5 Sudeste 12 Sur 0 916.1 -0.4 29
2019-05-31 11:00:00 21.8 4 Sudoeste 9 Sudeste 0 916.3 -0.2 37
2019-05-31 10:00:00 18.2 3 Noroeste 5 Noroeste 0 916.7 0.5 49
2019-05-31 09:00:00 14.2 0 Calma 6 Norte 0 916.5 0.4 60
2019-05-31 08:00:00 10.4 0 Calma 4 Sudoeste 0 916.5 0.3 68
2019-05-31 07:00:00 10.9 2 Norte 5 Norte 0 916.2 -0.1 67
2019-05-31 06:00:00 11.8 3 Norte 5 Norte 0 916.1 -0.5 64
2019-05-31 05:00:00 12.9 0 Calma 5 Oeste 0 916.2 -0.8 60
2019-05-31 04:00:00 13.9 2 Sudoeste 6 Sudoeste 0 916.3 -0.7 57
2019-05-31 03:00:00 15.2 2 Noroeste 14 Sudeste 0 916.6 -0.5 52
2019-05-31 02:00:00 16.4 5 Sudeste 15 Sudeste 0 917 0.6 47
2019-05-31 01:00:00 17.6 8 Sudeste 16 Sudeste 0 917 1.7 48
2019-05-31 00:00:00 18.5 9 Sudeste 17 Sudeste 0 917.1 2.6 45
2019-05-30 23:00:00 20.5 8 Sudeste 25 Sudeste 0 916.4 2.5 38
2019-05-30 22:00:00 23.3 11 Sur 21 Sudeste 0 915.3 1.3 29
2019-05-30 21:00:00 25.6 3 Sudoeste 18 Norte 0 914.5 0.2 25
2019-05-30 20:00:00 27.8 6 Norte 16 Nordeste 0 913.9 -0.8 18
2019-05-30 19:00:00 28.7 5 Sur 19 Oeste 0 914 -1.2 21
2019-05-30 18:00:00 28.8 9 Oeste 20 Oeste 0 914.3 -1.5 21
2019-05-30 17:00:00 28.4 6 Oeste 20 Oeste 0 914.7 -1.4 21
2019-05-30 16:00:00 27 5 Oeste 17 Sudoeste 0 915.2 -1.1 23
2019-05-30 15:00:00 25.9 6 Sudeste 18 Sudoeste 0 915.8 -0.8 24
2019-05-30 14:00:00 25.1 6 Sudoeste 13 Sur 0 916.1 -0.6 25
2019-05-30 13:00:00 22.9 5 Sudoeste 14 Oeste 0 916.3 -0.5 29
2019-05-30 12:00:00 21.2 5 Sur 19 Sur 0 916.6 0 32
2019-05-30 11:00:00 18.8 8 Sur 15 Sudeste 0 916.7 0.3 38
2019-05-30 10:00:00 15.5 5 Sudoeste 9 Sudoeste 0 916.8 0.9 49
2019-05-30 09:00:00 11.6 4 Sudeste 8 Sudeste 0 916.6 0.9 64
2019-05-30 08:00:00 8 2 Sudeste 7 Sudoeste 0 916.4 0.9 71
2019-05-30 07:00:00 8.2 4 Norte 10 Sudoeste 0 915.9 0.4 70
2019-05-30 06:00:00 9 3 Norte 16 Nordeste 0 915.7 -0.1 67
2019-05-30 05:00:00 9.8 3 Oeste 9 Norte 0 915.5 -0.3 64
2019-05-30 04:00:00 10.7 3 Oeste 8 Sudoeste 0 915.5 -0.2 61
2019-05-30 03:00:00 11.8 3 Norte 12 Norte 0 915.8 0.3 58
2019-05-30 02:00:00 13.2 4 Norte 10 Nordeste 0 915.8 0.7 54
2019-05-30 01:00:00 14.5 3 Noroeste 11 Noroeste 0 915.7 1.5 51
2019-05-30 00:00:00 15.8 3 Oeste 10 Norte 0 915.5 1.8 46
2019-05-29 23:00:00 17.4 2 Noroeste 9 Norte 0 915.1 2 41
2019-05-29 22:00:00 19.1 4 Norte 15 Noroeste 0 914.2 1.5 36
2019-05-29 21:00:00 20.9 5 Norte 24 Norte 0 913.7 1.3 32
2019-05-29 20:00:00 22.6 9 Norte 29 Norte 0 913.1 0.8 28
2019-05-29 19:00:00 24.7 9 Norte 27 Norte 0 912.7 0.3 24
2019-05-29 18:00:00 25.2 9 Norte 31 Noroeste 0 912.4 0 24
2019-05-29 17:00:00 25.3 9 Norte 28 Norte 0 912.3 -0.4 24
2019-05-29 16:00:00 24.1 9 Norte 26 Nordeste 0 912.4 -0.5 24
2019-05-29 15:00:00 23.7 6 Noroeste 22 Norte 0 912.4 -0.3 22
2019-05-29 14:00:00 22.5 8 Noroeste 26 Noroeste 0 912.7 -0.1 23
2019-05-29 13:00:00 21.2 6 Norte 22 Norte 0 912.9 -0.4 24
2019-05-29 12:00:00 19.3 5 Noroeste 24 Norte 0 912.7 -0.4 26
2019-05-29 11:00:00 17.1 7 Norte 23 Norte 0 912.8 -0.2 30
2019-05-29 10:00:00 14 6 Noroeste 23 Norte 0 913.3 0.6 41
2019-05-29 09:00:00 10.5 6 Norte 21 Norte 0 913.1 0.9 53
2019-05-29 08:00:00 7.6 5 Noroeste 22 Norte 0 913 1.1 63
2019-05-29 07:00:00 7.5 4 Norte 22 Norte 0 912.7 0.8 63
2019-05-29 06:00:00 8 6 Norte 21 Norte 0 912.2 0.5 62
2019-05-29 05:00:00 8.6 5 Norte 22 Norte 0 911.9 0.2 61
2019-05-29 04:00:00 9.3 8 Norte 26 Nordeste 0 911.9 0.3 58
2019-05-29 03:00:00 10.1 9 Norte 23 Noroeste 0 911.7 0.3 55
2019-05-29 02:00:00 11.3 6 Norte 20 Norte 0 911.7 0.9 52
2019-05-29 01:00:00 12.8 8 Norte 24 Norte 0 911.6 1.9 49
2019-05-29 00:00:00 14.6 3 Noroeste 18 Norte 0 911.4 2.5 45
2019-05-28 23:00:00 16.2 4 Norte 19 Norte 0 910.8 2.4 42
2019-05-28 22:00:00 18.3 7 Norte 23 Norte 0 909.7 1.7 37
2019-05-28 21:00:00 20.5 6 Norte 22 Noroeste 0 908.9 1.3 30
2019-05-28 20:00:00 22.1 6 Norte 27 Norte 0 908.4 1 25
2019-05-28 19:00:00 23.6 10 Norte 28 Norte 0 908 0.7 22
2019-05-28 18:00:00 25 8 Norte 25 Norte 0 907.6 0.2 16
2019-05-28 17:00:00 25.1 9 Noroeste 31 Noroeste 0 907.4 -0.3 16
2019-05-28 16:00:00 24.9 11 Noroeste 35 Norte 0 907.3 -0.3 16
2019-05-28 15:00:00 24.5 14 Noroeste 30 Noroeste 0 907.4 -0.2 15
2019-05-28 14:00:00 24.3 9 Noroeste 28 Norte 0 907.7 0.1 13
2019-05-28 13:00:00 22.9 10 Noroeste 26 Norte 0 907.6 -0.2 17
2019-05-28 12:00:00 21 7 Noroeste 21 Norte 0 907.6 0.2 22
2019-05-28 11:00:00 19.5 9 Norte 20 Noroeste 0 907.6 0.3 26
2019-05-28 10:00:00 16.1 4 Norte 14 Norte 0 907.8 0.8 52
2019-05-28 09:00:00 12.8 6 Noroeste 14 Norte 0 907.4 0.8 69
2019-05-28 08:00:00 9.9 3 Noroeste 8 Norte 0 907.3 0.7 78
2019-05-28 07:00:00 10 2 Oeste 5 Norte 0 907 0.3 78
2019-05-28 06:00:00 10.7 4 Norte 5 Norte 0 906.6 -0.1 75
2019-05-28 05:00:00 11.6 3 Sudoeste 6 Sudoeste 0 906.6 -0.3 72
2019-05-28 04:00:00 12.9 2 Sur 8 Norte 0 906.7 0 69
2019-05-28 03:00:00 14 5 Norte 8 Norte 0 906.7 0.1 66
2019-05-28 02:00:00 15.3 4 Noroeste 10 Nordeste 0 906.9 0.7 61
2019-05-28 01:00:00 16.3 5 Norte 19 Nordeste 0 906.7 1.5 58
2019-05-28 00:00:00 17.6 10 Nordeste 24 Norte 0 906.6 1.9 53